Sadaya II — FAA7614 — position and weather

sailwx.info

Track history (hours):
 
Tides and Currents Weather Stations Pressure Air Temp Water Temp Dewpoint Dewpoint Depression Visibility Wind Speed Wind Dir Waves Ship Positions

Sadaya II

Last reported at 2018-Jun-06 17:41 UTC. Time now 2018-Jun-22 03:21 UTC.
Position N 42°54' W 070°36'.
Warning: this ship's position is 15 days out of date.

Length 12 m.

Type: Sailing vessel. MMSI: 227154130.

Date/timePositionNaut miles runAvg speedWind from/ knotsBaromVisibWave heightAir tempDewpointWater temp
2018-Jun-06 17:41N 42°54' W 070°36'3 6.2
2018-Jun-06 17:16N 42°51' W 070°35'2 6.1
2018-Jun-06 16:59N 42°50' W 070°35'3 6.1
2018-Jun-06 16:30N 42°47' W 070°34'3 6.0
2018-Jun-06 16:01N 42°44' W 070°33'3 5.5
2018-Jun-06 15:30N 42°41' W 070°33'3 5.2
2018-Jun-06 15:00N 42°39' W 070°33'2 5.0
2018-Jun-06 14:30N 42°37' W 070°34'3 5.4
2018-Jun-06 14:01N 42°35' W 070°37'2 4.7
2018-Jun-06 13:31N 42°35' W 070°41'2 2.4
2018-Jun-06 12:49N 42°37' W 070°39'0 0.0
2018-Jun-06 12:25N 42°37' W 070°39'0 0.0
2018-Jun-06 11:58N 42°37' W 070°39'0 0.0
2018-Jun-06 11:25N 42°37' W 070°39'0 0.0
2018-Jun-06 10:58N 42°37' W 070°39'0 0.0
2018-Jun-06 10:28N 42°37' W 070°39'0 0.0
2018-Jun-06 09:55N 42°37' W 070°39'0 0.0
2018-Jun-06 09:25N 42°37' W 070°39'0 0.0
2018-Jun-06 08:55N 42°37' W 070°39'0 0.0
2018-Jun-06 08:28N 42°37' W 070°39'0 0.0
2018-Jun-06 07:55N 42°37' W 070°39'0 0.0
2018-Jun-06 07:25N 42°37' W 070°39'0 0.0
2018-Jun-06 06:55N 42°37' W 070°39'0 0.0
2018-Jun-06 06:25N 42°37' W 070°39'0 0.0
2018-Jun-06 05:55N 42°37' W 070°39'0 0.0
2018-Jun-06 05:28N 42°37' W 070°39'0 0.0
2018-Jun-06 04:55N 42°37' W 070°39'0 0.0
2018-Jun-06 04:25N 42°37' W 070°39'0 0.0
2018-Jun-06 03:55N 42°37' W 070°39'0 0.0
2018-Jun-06 03:28N 42°37' W 070°39'0 0.0
2018-Jun-06 02:55N 42°37' W 070°39'0 0.0
2018-Jun-06 02:19N 42°37' W 070°39'0 0.0
2018-Jun-06 01:58N 42°37' W 070°39'0 0.0
2018-Jun-06 01:13N 42°37' W 070°39'0 0.0
2018-Jun-06 00:55N 42°37' W 070°39'0 0.0
2018-Jun-06 00:25N 42°37' W 070°39'0 0.0
2018-Jun-05 23:58N 42°37' W 070°39'0 0.0
2018-Jun-05 23:28N 42°37' W 070°39'0 0.0
2018-Jun-05 22:55N 42°37' W 070°39'0 0.0
2018-Jun-05 22:19N 42°37' W 070°39'0 0.0
2018-Jun-05 21:55N 42°37' W 070°39'0 0.0
2018-Jun-05 21:25N 42°37' W 070°39'0 0.0
2018-Jun-05 20:55N 42°37' W 070°39'0 0.0
2018-Jun-05 20:25N 42°37' W 070°39'0 0.0
2018-Jun-05 19:58N 42°37' W 070°39'0 0.0
2018-Jun-05 19:19N 42°37' W 070°39'0 0.0
2018-Jun-05 18:55N 42°37' W 070°39'0 0.0
2018-Jun-05 18:28N 42°37' W 070°39'0 0.0
2018-Jun-05 17:55N 42°37' W 070°39'0 0.0
2018-Jun-05 17:22N 42°37' W 070°39'0 0.0
2018-Jun-05 16:55N 42°37' W 070°39'0 0.0
2018-Jun-05 16:25N 42°37' W 070°39'0 0.0
2018-Jun-05 15:58N 42°37' W 070°39'0 0.0
2018-Jun-05 15:25N 42°37' W 070°39'0 0.0
2018-Jun-05 14:58N 42°37' W 070°39'0 0.0
2018-Jun-05 14:25N 42°37' W 070°39'0 0.0
2018-Jun-05 13:58N 42°37' W 070°39'0 0.0
2018-Jun-05 13:19N 42°37' W 070°39'0 0.0
2018-Jun-05 12:49N 42°37' W 070°39'0 0.0
2018-Jun-05 12:25N 42°37' W 070°39'0 0.0
2018-Jun-05 11:55N 42°37' W 070°39'0 0.0
2018-Jun-05 11:19N 42°37' W 070°39'0 0.0
2018-Jun-05 10:55N 42°37' W 070°39'0 0.0
2018-Jun-05 10:28N 42°37' W 070°39'0 0.0
2018-Jun-05 09:55N 42°37' W 070°39'0 0.0
2018-Jun-05 09:25N 42°37' W 070°39'0 0.0
2018-Jun-05 08:55N 42°37' W 070°39'0 0.0
2018-Jun-05 08:25N 42°37' W 070°39'0 0.0
2018-Jun-05 07:55N 42°37' W 070°39'0 0.0
2018-Jun-05 07:25N 42°37' W 070°39'0 0.0
2018-Jun-05 06:58N 42°37' W 070°39'0 0.0
2018-Jun-05 06:28N 42°37' W 070°39'0 0.0
2018-Jun-05 05:55N 42°37' W 070°39'0 0.0
2018-Jun-05 05:25N 42°37' W 070°39'0 0.0
2018-Jun-05 04:55N 42°37' W 070°39'0 0.0
2018-Jun-05 04:19N 42°37' W 070°39'0 0.0
2018-Jun-05 03:58N 42°37' W 070°39'0 0.0
2018-Jun-05 03:25N 42°37' W 070°39'0 0.0
2018-Jun-05 02:58N 42°37' W 070°39'0 0.0
2018-Jun-05 02:28N 42°37' W 070°39'0 0.0
2018-Jun-05 01:55N 42°37' W 070°39'0 0.0
2018-Jun-05 01:25N 42°37' W 070°39'0 0.0
2018-Jun-05 00:55N 42°37' W 070°39'0 0.0
2018-Jun-05 00:25N 42°37' W 070°39'0 0.0
2018-Jun-04 23:55N 42°37' W 070°39'0 0.0
2018-Jun-04 23:25N 42°37' W 070°39'0 0.0
2018-Jun-04 22:58N 42°37' W 070°39'0 0.0
2018-Jun-04 22:25N 42°37' W 070°39'0 0.0
2018-Jun-04 21:55N 42°37' W 070°39'0 0.0
2018-Jun-04 21:28N 42°37' W 070°39'0 0.0
2018-Jun-04 20:55N 42°37' W 070°39'0 0.0
2018-Jun-04 20:22N 42°37' W 070°39'0 0.0
2018-Jun-04 19:55N 42°37' W 070°39'0 0.0
2018-Jun-04 19:28N 42°37' W 070°39'0 0.0
2018-Jun-04 18:49N 42°37' W 070°39'0 0.0
2018-Jun-04 18:25N 42°37' W 070°39'0 0.0
2018-Jun-04 17:55N 42°37' W 070°39'0 0.0
2018-Jun-04 17:28N 42°37' W 070°39'0 0.0
2018-Jun-04 16:58N 42°37' W 070°39'0 0.0
2018-Jun-04 16:28N 42°37' W 070°39'0 0.0
2018-Jun-04 15:55N 42°37' W 070°39'0 0.0
2018-Jun-04 15:28N 42°37' W 070°39'0 0.0
2018-Jun-04 14:58N 42°37' W 070°39'0 0.0
2018-Jun-04 14:25N 42°37' W 070°39'0 0.0
2018-Jun-04 13:55N 42°37' W 070°39'0 0.0
2018-Jun-04 13:25N 42°37' W 070°39'0 0.0
2018-Jun-04 12:55N 42°37' W 070°39'0 0.0
2018-Jun-04 12:25N 42°37' W 070°39'0 0.0
2018-Jun-04 11:58N 42°37' W 070°39'0 0.0
2018-Jun-04 11:28N 42°37' W 070°39'0 0.0
2018-Jun-04 10:58N 42°37' W 070°39'0 0.0
2018-Jun-04 10:28N 42°37' W 070°39'0 0.0
2018-Jun-04 09:58N 42°37' W 070°39'0 0.0
2018-Jun-04 09:25N 42°37' W 070°39'0 0.0
2018-Jun-04 08:49N 42°37' W 070°39'0 0.0
2018-Jun-04 08:28N 42°37' W 070°39'0 0.0
2018-Jun-04 07:55N 42°37' W 070°39'0 0.0
2018-Jun-04 07:28N 42°37' W 070°39'0 0.0
2018-Jun-04 06:58N 42°37' W 070°39'0 0.0
2018-Jun-04 06:25N 42°37' W 070°39'0 0.0
2018-Jun-04 05:55N 42°37' W 070°39'0 0.0
2018-Jun-04 05:25N 42°37' W 070°39'0 0.0
2018-Jun-04 04:55N 42°37' W 070°39'0 0.0
2018-Jun-04 04:25N 42°37' W 070°39'0 0.0
2018-Jun-04 03:55N 42°37' W 070°39'0 0.0
2018-Jun-04 03:28N 42°37' W 070°39'0 0.0
2018-Jun-04 02:55N 42°37' W 070°39'0 0.0
2018-Jun-04 02:28N 42°37' W 070°39'0 0.0
2018-Jun-04 01:55N 42°37' W 070°39'0 0.0
2018-Jun-04 01:25N 42°37' W 070°39'0 0.0
2018-Jun-04 00:58N 42°37' W 070°39'0 0.0
2018-Jun-04 00:25N 42°37' W 070°39'0 0.0
2018-Jun-03 23:58N 42°37' W 070°39'0 0.0
2018-Jun-03 23:25N 42°37' W 070°39'0 0.0
2018-Jun-03 22:58N 42°37' W 070°39'0 0.0
2018-Jun-03 22:28N 42°37' W 070°39'0 0.0
2018-Jun-03 21:58N 42°37' W 070°39'0 0.0
2018-Jun-03 21:25N 42°37' W 070°39'0 0.0
2018-Jun-03 20:55N 42°37' W 070°39'0 0.0
2018-Jun-03 20:25N 42°37' W 070°39'0 0.0
2018-Jun-03 19:55N 42°37' W 070°39'0 0.0
2018-Jun-03 19:25N 42°37' W 070°39'0 0.0
2018-Jun-03 18:55N 42°37' W 070°39'0 0.0
2018-Jun-03 18:28N 42°37' W 070°39'0 0.0
2018-Jun-03 17:58N 42°37' W 070°39'0 0.0
2018-Jun-03 17:22N 42°37' W 070°39'0 0.0
2018-Jun-03 16:55N 42°37' W 070°39'0 0.0
2018-Jun-03 16:25N 42°37' W 070°39'0 0.0
2018-Jun-03 15:58N 42°37' W 070°39'0 0.0
2018-Jun-03 15:19N 42°37' W 070°39'0 0.0
2018-Jun-03 14:55N 42°37' W 070°39'0 0.0
2018-Jun-03 14:25N 42°37' W 070°39'0 0.0
2018-Jun-03 13:55N 42°37' W 070°39'0 0.0
2018-Jun-03 13:25N 42°37' W 070°39'0 0.0
2018-Jun-03 12:55N 42°37' W 070°39'0 0.0
2018-Jun-03 12:13N 42°37' W 070°39'0 0.0
2018-Jun-03 11:55N 42°37' W 070°39'0 0.0
2018-Jun-03 11:25N 42°37' W 070°39'0 0.0
2018-Jun-03 10:55N 42°37' W 070°39'0 0.0
2018-Jun-03 10:19N 42°37' W 070°39'0 0.0
2018-Jun-03 09:49N 42°37' W 070°39'0 0.0
2018-Jun-03 09:28N 42°37' W 070°39'0 0.0
2018-Jun-03 08:55N 42°37' W 070°39'0 0.0
2018-Jun-03 08:25N 42°37' W 070°39'0 0.0
2018-Jun-03 07:58N 42°37' W 070°39'0 0.0
2018-Jun-03 07:25N 42°37' W 070°39'0 0.0
2018-Jun-03 06:58N 42°37' W 070°39'0 0.0
2018-Jun-03 06:25N 42°37' W 070°39'0 0.0
2018-Jun-03 05:55N 42°37' W 070°39'0 0.0
2018-Jun-03 05:28N 42°37' W 070°39'0 0.0
2018-Jun-03 04:58N 42°37' W 070°39'0 0.0
2018-Jun-03 04:25N 42°37' W 070°39'0 0.0
2018-Jun-03 03:58N 42°37' W 070°39'0 0.0
2018-Jun-03 03:25N 42°37' W 070°39'0 0.0
2018-Jun-03 02:58N 42°37' W 070°39'0 0.0
2018-Jun-03 02:28N 42°37' W 070°39'0 0.0
2018-Jun-03 01:55N 42°37' W 070°39'0 0.0
2018-Jun-03 01:25N 42°37' W 070°39'0 0.0
2018-Jun-03 00:58N 42°37' W 070°39'0 0.0
2018-Jun-03 00:25N 42°37' W 070°39'0 0.0
2018-Jun-02 23:46N 42°37' W 070°39'0 0.0
2018-Jun-02 23:31N 42°37' W 070°39'0 0.0
2018-Jun-02 22:58N 42°37' W 070°39'0 0.0
2018-Jun-02 22:10N 42°37' W 070°39'0 0.0
2018-Jun-02 21:52N 42°37' W 070°39'0 0.0
2018-Jun-02 21:28N 42°37' W 070°39'0 0.0
2018-Jun-02 20:55N 42°37' W 070°39'0 0.0
2018-Jun-02 20:22N 42°37' W 070°39'0 0.0
2018-Jun-02 19:55N 42°37' W 070°39'0 0.0
2018-Jun-02 19:25N 42°37' W 070°39'0 0.0
2018-Jun-02 18:55N 42°37' W 070°39'0 0.0
2018-Jun-02 18:22N 42°37' W 070°39'0 0.0
2018-Jun-02 17:58N 42°37' W 070°39'0 0.0
2018-Jun-02 17:28N 42°37' W 070°39'0 0.0
2018-Jun-02 16:55N 42°37' W 070°39'0 0.0
2018-Jun-02 16:28N 42°37' W 070°39'0 0.0
2018-Jun-02 15:58N 42°37' W 070°39'0 0.0
2018-Jun-02 15:25N 42°37' W 070°39'0 0.0
2018-Jun-02 14:58N 42°37' W 070°39'0 0.0
2018-Jun-02 14:28N 42°37' W 070°39'0 0.0
2018-Jun-02 13:58N 42°37' W 070°39'0 0.0
2018-Jun-02 13:28N 42°37' W 070°39'0 0.0
2018-Jun-02 12:55N 42°37' W 070°39'0 0.0
2018-Jun-02 12:25N 42°37' W 070°39'0 0.0
2018-Jun-02 11:58N 42°37' W 070°39'0 0.0
2018-Jun-02 11:28N 42°37' W 070°39'0 0.0
2018-Jun-02 10:58N 42°37' W 070°39'0 0.0
2018-Jun-02 10:19N 42°37' W 070°39'0 0.0
2018-Jun-02 09:58N 42°37' W 070°39'0 0.0
2018-Jun-02 09:28N 42°37' W 070°39'0 0.0
2018-Jun-02 08:52N 42°37' W 070°39'0 0.0
2018-Jun-02 08:25N 42°37' W 070°39'0 0.0
2018-Jun-02 07:58N 42°37' W 070°39'0 0.0
2018-Jun-02 07:28N 42°37' W 070°39'0 0.0
2018-Jun-02 06:55N 42°37' W 070°39'0 0.0
2018-Jun-02 06:25N 42°37' W 070°39'0 0.0
2018-Jun-02 05:58N 42°37' W 070°39'0 0.0
2018-Jun-02 05:19N 42°37' W 070°39'0 0.0
2018-Jun-02 04:55N 42°37' W 070°39'0 0.0
2018-Jun-02 04:25N 42°37' W 070°39'0 0.0
2018-Jun-02 03:55N 42°37' W 070°39'0 0.0
2018-Jun-02 03:25N 42°37' W 070°39'0 0.0
2018-Jun-02 02:55N 42°37' W 070°39'0 0.0
2018-Jun-02 02:28N 42°37' W 070°39'0 0.0
2018-Jun-02 01:55N 42°37' W 070°39'0 0.0
2018-Jun-02 01:28N 42°37' W 070°39'0 0.0
2018-Jun-02 00:55N 42°37' W 070°39'0 0.0
2018-Jun-02 00:25N 42°37' W 070°39'0 0.0
2018-Jun-01 23:58N 42°37' W 070°39'0 0.0
2018-Jun-01 23:22N 42°37' W 070°39'0 0.0
2018-Jun-01 22:58N 42°37' W 070°39'0 0.0
2018-Jun-01 22:19N 42°37' W 070°39'0 0.0
2018-Jun-01 21:58N 42°37' W 070°39'0 0.0
2018-Jun-01 21:28N 42°37' W 070°39'0 0.0
2018-Jun-01 20:55N 42°37' W 070°39'0 0.0
2018-Jun-01 20:25N 42°37' W 070°39'0 0.0
2018-Jun-01 19:55N 42°37' W 070°39'0 0.0
2018-Jun-01 19:22N 42°37' W 070°39'0 0.0
2018-Jun-01 18:49N 42°37' W 070°39'0 0.0
2018-Jun-01 18:25N 42°37' W 070°39'0 0.0
2018-Jun-01 17:49N 42°37' W 070°39'0 0.0
2018-Jun-01 17:28N 42°37' W 070°39'0 0.0
2018-Jun-01 16:58N 42°37' W 070°39'0 0.0
2018-Jun-01 16:25N 42°37' W 070°39'0 0.0
2018-Jun-01 15:58N 42°37' W 070°39'0 0.0
2018-Jun-01 15:25N 42°37' W 070°39'0 0.1
2018-Jun-01 15:00N 42°37' W 070°39'0 0.1
2018-Jun-01 14:27N 42°36' W 070°39'0 0.0
2018-Jun-01 13:57N 42°36' W 070°39'0 0.0
2018-Jun-01 13:27N 42°36' W 070°39'0 0.0
2018-Jun-01 12:54N 42°36' W 070°39'0 0.0
2018-Jun-01 12:30N 42°36' W 070°39'0 0.0
2018-Jun-01 12:00N 42°36' W 070°39'0 0.0
2018-Jun-01 11:30N 42°36' W 070°39'0 0.0
2018-Jun-01 10:57N 42°36' W 070°39'0 0.0
2018-Jun-01 10:21N 42°36' W 070°39'0 0.0
2018-Jun-01 09:57N 42°36' W 070°39'0 0.0
2018-Jun-01 09:27N 42°36' W 070°39'0 0.0
2018-Jun-01 09:00N 42°36' W 070°39'0 0.0
2018-Jun-01 08:27N 42°36' W 070°39'0 0.0
2018-Jun-01 07:57N 42°36' W 070°39'0 0.0
2018-Jun-01 07:27N 42°36' W 070°39'0 0.0
2018-Jun-01 07:00N 42°36' W 070°39'0 0.0
2018-Jun-01 06:30N 42°36' W 070°39'0 0.0
2018-Jun-01 06:00N 42°36' W 070°39'0 0.0
2018-Jun-01 05:24N 42°36' W 070°39'0 0.0
2018-Jun-01 05:00N 42°36' W 070°39'0 0.0
2018-Jun-01 04:27N 42°36' W 070°39'0 0.0
2018-Jun-01 04:00N 42°36' W 070°39'0 0.0
2018-Jun-01 03:24N 42°36' W 070°39'0 0.0
2018-Jun-01 03:00N 42°36' W 070°39'0 0.0
2018-Jun-01 02:27N 42°36' W 070°39'0 0.0
2018-Jun-01 01:45N 42°36' W 070°39'0 0.0
2018-Jun-01 01:21N 42°36' W 070°39'0 0.0
2018-Jun-01 01:00N 42°36' W 070°39'0 0.0
2018-Jun-01 00:27N 42°36' W 070°39'0 0.0
2018-May-31 23:57N 42°36' W 070°39'0 0.0
2018-May-31 23:27N 42°36' W 070°39'0 0.0
2018-May-31 22:57N 42°36' W 070°39'0 0.0
2018-May-31 22:30N 42°36' W 070°39'0 0.0
2018-May-31 21:45N 42°36' W 070°39'0 0.0
2018-May-31 21:27N 42°36' W 070°39'0 0.0
2018-May-31 21:00N 42°36' W 070°39'0 0.0
2018-May-31 20:21N 42°36' W 070°39'0 0.0
2018-May-31 20:00N 42°36' W 070°39'0 0.0
2018-May-31 19:18N 42°36' W 070°39'0 0.0
2018-May-31 19:00N 42°36' W 070°39'0 0.0
2018-May-31 18:30N 42°36' W 070°39'0 0.0
2018-May-31 18:00N 42°36' W 070°39'0 0.0
2018-May-31 17:27N 42°36' W 070°39'0 0.0
2018-May-31 16:57N 42°36' W 070°39'0 0.0
2018-May-31 16:27N 42°36' W 070°39'0 0.0
2018-May-31 15:57N 42°36' W 070°39'0 0.0
2018-May-31 15:30N 42°36' W 070°39'0 0.0
2018-May-31 14:51N 42°36' W 070°39'0 0.0
2018-May-31 14:21N 42°36' W 070°39'0 0.0
2018-May-31 14:00N 42°36' W 070°39'0 0.0
2018-May-31 13:27N 42°36' W 070°39'0 0.0
2018-May-31 13:00N 42°36' W 070°39'0 0.0
2018-May-31 12:30N 42°36' W 070°39'0 0.0
2018-May-31 12:00N 42°36' W 070°39'0 0.0
2018-May-31 11:27N 42°36' W 070°39'0 0.0
2018-May-31 10:57N 42°36' W 070°39'0 0.0
2018-May-31 10:30N 42°36' W 070°39'0 0.0
2018-May-31 09:57N 42°36' W 070°39'0 0.0
2018-May-31 09:27N 42°36' W 070°39'0 0.0
2018-May-31 08:57N 42°36' W 070°39'0 0.0
2018-May-31 08:27N 42°36' W 070°39'0 0.0
2018-May-31 08:00N 42°36' W 070°39'0 0.0
2018-May-31 07:27N 42°36' W 070°39'0 0.0
2018-May-31 07:00N 42°36' W 070°39'0 0.0
2018-May-31 06:27N 42°36' W 070°39'0 0.0
2018-May-31 06:00N 42°36' W 070°39'0 0.0
2018-May-31 05:27N 42°36' W 070°39'0 0.0
2018-May-31 04:57N 42°36' W 070°39'0 0.0
2018-May-31 04:30N 42°36' W 070°39'0 0.0
2018-May-31 03:57N 42°36' W 070°39'0 0.0
2018-May-31 03:30N 42°36' W 070°39'0 0.0
2018-May-31 03:00N 42°36' W 070°39'0 0.0
2018-May-31 02:24N 42°36' W 070°39'0 0.0
2018-May-31 02:00N 42°36' W 070°39'0 0.0
2018-May-31 01:27N 42°36' W 070°39'0 0.0
2018-May-31 01:00N 42°36' W 070°39'0 0.0
2018-May-31 00:30N 42°36' W 070°39'0 0.0
2018-May-30 23:57N 42°36' W 070°39'0 0.0
2018-May-30 23:24N 42°36' W 070°39'0 0.0
2018-May-30 23:00N 42°36' W 070°39'0 0.0
2018-May-30 22:27N 42°36' W 070°39'0 0.0
2018-May-30 21:57N 42°36' W 070°39'0 0.0
2018-May-30 21:27N 42°36' W 070°39'0 0.0
2018-May-30 21:00N 42°36' W 070°39'0 0.0
2018-May-30 20:30N 42°36' W 070°39'0 0.0
2018-May-30 20:00N 42°36' W 070°39'0 0.0
2018-May-30 19:30N 42°36' W 070°39'0 0.0
2018-May-30 18:57N 42°36' W 070°39'0 0.0
2018-May-30 18:21N 42°36' W 070°39'0 0.0
2018-May-30 17:51N 42°36' W 070°39'0 0.0
2018-May-30 17:27N 42°36' W 070°39'0 0.0
2018-May-30 17:00N 42°36' W 070°39'0 0.0
2018-May-30 16:30N 42°36' W 070°39'0 0.0
2018-May-30 16:00N 42°36' W 070°39'0 0.0
2018-May-30 15:30N 42°36' W 070°39'0 0.0
2018-May-30 15:00N 42°36' W 070°39'0 0.0
2018-May-30 14:30N 42°36' W 070°39'0 0.0
2018-May-30 14:00N 42°36' W 070°39'0 0.0
2018-May-30 13:30N 42°36' W 070°39'0 0.0
2018-May-30 12:57N 42°36' W 070°39'0 0.0
2018-May-30 12:21N 42°36' W 070°39'0 0.0
2018-May-30 12:00N 42°36' W 070°39'0 0.0
2018-May-30 11:30N 42°36' W 070°39'0 0.0
2018-May-30 10:45N 42°36' W 070°39'0 0.0
2018-May-30 10:24N 42°36' W 070°39'0 0.0
2018-May-30 10:00N 42°36' W 070°39'0 0.0
2018-May-30 09:30N 42°36' W 070°39'0 0.0
2018-May-30 08:48N 42°36' W 070°39'0 0.0
2018-May-30 08:30N 42°36' W 070°39'0 0.0
2018-May-30 08:00N 42°36' W 070°39'0 0.0
2018-May-30 07:27N 42°36' W 070°39'0 0.0
2018-May-30 07:00N 42°36' W 070°39'0 0.0
2018-May-30 06:30N 42°36' W 070°39'0 0.0
2018-May-30 06:00N 42°36' W 070°39'0 0.0
2018-May-30 05:30N 42°36' W 070°39'0 0.0
2018-May-30 05:00N 42°36' W 070°39'0 0.0
2018-May-30 04:30N 42°36' W 070°39'0 0.0
2018-May-30 03:54N 42°36' W 070°39'0 0.0
2018-May-30 03:27N 42°36' W 070°39'0 0.0
2018-May-30 03:00N 42°36' W 070°39'0 0.0
2018-May-30 02:30N 42°36' W 070°39'0 0.0
2018-May-30 01:54N 42°36' W 070°39'0 0.0
2018-May-30 01:30N 42°36' W 070°39'0 0.0
2018-May-30 00:57N 42°36' W 070°39'0 0.0
2018-May-30 00:27N 42°36' W 070°39'0 0.0
2018-May-29 23:57N 42°36' W 070°39'0 0.0
2018-May-29 23:27N 42°36' W 070°39'0 0.0
2018-May-29 23:00N 42°36' W 070°39'0 0.0
2018-May-29 22:30N 42°36' W 070°39'0 0.0
2018-May-29 22:00N 42°36' W 070°39'0 0.0
2018-May-29 21:27N 42°36' W 070°39'0 0.0
2018-May-29 21:00N 42°36' W 070°39'0 0.0
2018-May-29 20:30N 42°36' W 070°39'0 0.0
2018-May-29 20:00N 42°36' W 070°39'0 0.0
2018-May-29 19:27N 42°36' W 070°39'0 0.0
2018-May-29 19:00N 42°36' W 070°39'0 0.1
2018-May-29 18:27N 42°37' W 070°39'0 0.0
2018-May-29 17:57N 42°37' W 070°39'0 0.0
2018-May-29 17:30N 42°37' W 070°39'0 0.0
2018-May-29 16:51N 42°37' W 070°39'0 0.0
2018-May-29 16:27N 42°37' W 070°39'0 0.0
2018-May-29 15:57N 42°37' W 070°39'0 0.0
2018-May-29 15:24N 42°37' W 070°39'0 0.0
2018-May-29 14:57N 42°37' W 070°39'0 0.0
2018-May-29 14:18N 42°37' W 070°39'0 0.4
2018-May-29 13:58N 42°37' W 070°39'0 0.0
2018-May-29 13:28N 42°37' W 070°39'0 0.0
2018-May-29 12:52N 42°37' W 070°39'0 0.0
2018-May-29 12:28N 42°37' W 070°39'0 0.0
2018-May-29 11:58N 42°37' W 070°39'0 0.0
2018-May-29 11:28N 42°37' W 070°39'0 0.0
2018-May-29 10:58N 42°37' W 070°39'0 0.0
2018-May-29 10:28N 42°37' W 070°39'0 0.0
2018-May-29 09:58N 42°37' W 070°39'0 0.0
2018-May-29 09:28N 42°37' W 070°39'0 0.0
2018-May-29 08:58N 42°37' W 070°39'0 0.0
2018-May-29 08:28N 42°37' W 070°39'0 0.0
2018-May-29 07:58N 42°37' W 070°39'0 0.0
2018-May-29 07:28N 42°37' W 070°39'0 0.0
2018-May-29 06:58N 42°37' W 070°39'0 0.0
2018-May-29 06:28N 42°37' W 070°39'0 0.0
2018-May-29 05:58N 42°37' W 070°39'0 0.0
2018-May-29 05:28N 42°37' W 070°39'0 0.0
2018-May-29 04:58N 42°37' W 070°39'0 0.0
2018-May-29 04:28N 42°37' W 070°39'0 0.0
2018-May-29 03:58N 42°37' W 070°39'0 0.0
2018-May-29 03:28N 42°37' W 070°39'0 0.0
2018-May-29 02:52N 42°37' W 070°39'0 0.0
2018-May-29 02:28N 42°37' W 070°39'0 0.0
2018-May-29 01:46N 42°37' W 070°39'0 0.0
2018-May-29 01:22N 42°37' W 070°39'0 0.0
2018-May-29 00:52N 42°37' W 070°39'0 0.0
2018-May-29 00:28N 42°37' W 070°39'0 0.0
2018-May-28 23:58N 42°37' W 070°39'0 0.0
2018-May-28 23:28N 42°37' W 070°39'0 0.0
2018-May-28 22:55N 42°37' W 070°39'0 0.0
2018-May-28 22:25N 42°37' W 070°39'0 0.0
2018-May-28 21:58N 42°37' W 070°39'0 0.0
2018-May-28 21:28N 42°37' W 070°39'0 0.0
2018-May-28 20:58N 42°37' W 070°39'0 0.0
2018-May-28 20:25N 42°37' W 070°39'0 0.0
2018-May-28 19:55N 42°37' W 070°39'0 0.0
2018-May-28 19:25N 42°37' W 070°39'0 0.0
2018-May-28 18:58N 42°37' W 070°39'0 0.0
2018-May-28 18:28N 42°37' W 070°39'0 0.0
2018-May-28 17:58N 42°37' W 070°39'0 0.3
2018-May-28 17:26N 42°37' W 070°39'1 2.1
2018-May-28 17:00N 42°36' W 070°40'3 5.9
2018-May-28 16:30N 42°33' W 070°42'3 5.8
2018-May-28 16:00N 42°31' W 070°44'3 5.6
2018-May-28 15:30N 42°29' W 070°46'8 5.4
2018-May-28 13:59N 42°23' W 070°54'2 4.4
2018-May-28 13:30N 42°21' W 070°56'2 4.3
2018-May-28 13:00N 42°20' W 070°59'3 5.3
2018-May-28 12:30N 42°21' W 071°02'1 1.7
2018-May-28 12:00N 42°22' W 071°03'0 0.0
2018-May-28 11:27N 42°22' W 071°03'0 0.0
2018-May-28 11:00N 42°22' W 071°03'0 0.0
2018-May-28 10:30N 42°22' W 071°03'0 0.0
2018-May-28 09:58N 42°22' W 071°03'0 0.0
2018-May-28 09:28N 42°22' W 071°03'0 0.0
2018-May-28 08:58N 42°22' W 071°03'0 0.0
2018-May-28 08:30N 42°22' W 071°03'0 0.0
2018-May-28 07:57N 42°22' W 071°03'0 0.0
2018-May-28 07:24N 42°22' W 071°03'0 0.0
2018-May-28 06:57N 42°22' W 071°03'0 0.0
2018-May-28 06:27N 42°22' W 071°03'0 0.0
2018-May-28 06:00N 42°22' W 071°03'0 0.0
2018-May-28 05:30N 42°22' W 071°03'0 0.0
2018-May-28 05:00N 42°22' W 071°03'0 0.0
2018-May-28 04:30N 42°22' W 071°03'0 0.0
2018-May-28 04:00N 42°22' W 071°03'0 0.0
2018-May-28 03:30N 42°22' W 071°03'0 0.0
2018-May-28 02:58N 42°22' W 071°03'0 0.0
2018-May-28 02:28N 42°22' W 071°03'0 0.0
2018-May-28 01:54N 42°22' W 071°03'0 0.0
2018-May-28 01:30N 42°22' W 071°03'0 0.0
2018-May-28 00:58N 42°22' W 071°03'0 0.0
2018-May-28 00:24N 42°22' W 071°03'0 0.0
2018-May-27 23:58N 42°22' W 071°03'0 0.0
2018-May-27 23:27N 42°22' W 071°03'0 0.0
2018-May-27 23:00N 42°22' W 071°03'0 0.0
2018-May-27 22:30N 42°22' W 071°03'0 0.0
2018-May-27 21:58N 42°22' W 071°03'0 0.0
2018-May-27 21:30N 42°22' W 071°03'0 0.0
2018-May-27 21:00N 42°22' W 071°03'0 0.0
2018-May-27 20:28N 42°22' W 071°03'0 0.0
2018-May-27 19:58N 42°22' W 071°03'0 0.0
2018-May-27 19:30N 42°22' W 071°03'0 0.0
2018-May-27 19:00N 42°22' W 071°03'0 0.0
2018-May-27 18:30N 42°22' W 071°03'0 0.0
2018-May-27 18:00N 42°22' W 071°03'  
Track history (hours):
 
Tides and Currents Weather Stations Pressure Air Temp Water Temp Dewpoint Dewpoint Depression Visibility Wind Speed Wind Dir Waves Ship Positions

Sadaya II

Last reported at 2018-Jun-06 17:41 UTC. Time now 2018-Jun-22 03:21 UTC.
Position N 42°54' W 070°36'.
Warning: this ship's position is 15 days out of date.

Length 12 m.

Type: Sailing vessel. MMSI: 227154130.

Date/timePositionNaut miles runAvg speedWind from/ knotsBaromVisibWave heightAir tempDewpointWater temp
2018-Jun-06 17:41N 42°54' W 070°36'3 6.2
2018-Jun-06 17:16N 42°51' W 070°35'2 6.1
2018-Jun-06 16:59N 42°50' W 070°35'3 6.1
2018-Jun-06 16:30N 42°47' W 070°34'3 6.0
2018-Jun-06 16:01N 42°44' W 070°33'3 5.5
2018-Jun-06 15:30N 42°41' W 070°33'3 5.2
2018-Jun-06 15:00N 42°39' W 070°33'2 5.0
2018-Jun-06 14:30N 42°37' W 070°34'3 5.4
2018-Jun-06 14:01N 42°35' W 070°37'2 4.7
2018-Jun-06 13:31N 42°35' W 070°41'2 2.4
2018-Jun-06 12:49N 42°37' W 070°39'0 0.0
2018-Jun-06 12:25N 42°37' W 070°39'0 0.0
2018-Jun-06 11:58N 42°37' W 070°39'0 0.0
2018-Jun-06 11:25N 42°37' W 070°39'0 0.0
2018-Jun-06 10:58N 42°37' W 070°39'0 0.0
2018-Jun-06 10:28N 42°37' W 070°39'0 0.0
2018-Jun-06 09:55N 42°37' W 070°39'0 0.0
2018-Jun-06 09:25N 42°37' W 070°39'0 0.0
2018-Jun-06 08:55N 42°37' W 070°39'0 0.0
2018-Jun-06 08:28N 42°37' W 070°39'0 0.0
2018-Jun-06 07:55N 42°37' W 070°39'0 0.0
2018-Jun-06 07:25N 42°37' W 070°39'0 0.0
2018-Jun-06 06:55N 42°37' W 070°39'0 0.0
2018-Jun-06 06:25N 42°37' W 070°39'0 0.0
2018-Jun-06 05:55N 42°37' W 070°39'0 0.0
2018-Jun-06 05:28N 42°37' W 070°39'0 0.0
2018-Jun-06 04:55N 42°37' W 070°39'0 0.0
2018-Jun-06 04:25N 42°37' W 070°39'0 0.0
2018-Jun-06 03:55N 42°37' W 070°39'0 0.0
2018-Jun-06 03:28N 42°37' W 070°39'0 0.0
2018-Jun-06 02:55N 42°37' W 070°39'0 0.0
2018-Jun-06 02:19N 42°37' W 070°39'0 0.0
2018-Jun-06 01:58N 42°37' W 070°39'0 0.0
2018-Jun-06 01:13N 42°37' W 070°39'0 0.0
2018-Jun-06 00:55N 42°37' W 070°39'0 0.0
2018-Jun-06 00:25N 42°37' W 070°39'0 0.0
2018-Jun-05 23:58N 42°37' W 070°39'0 0.0
2018-Jun-05 23:28N 42°37' W 070°39'0 0.0
2018-Jun-05 22:55N 42°37' W 070°39'0 0.0
2018-Jun-05 22:19N 42°37' W 070°39'0 0.0
2018-Jun-05 21:55N 42°37' W 070°39'0 0.0
2018-Jun-05 21:25N 42°37' W 070°39'0 0.0
2018-Jun-05 20:55N 42°37' W 070°39'0 0.0
2018-Jun-05 20:25N 42°37' W 070°39'0 0.0
2018-Jun-05 19:58N 42°37' W 070°39'0 0.0
2018-Jun-05 19:19N 42°37' W 070°39'0 0.0
2018-Jun-05 18:55N 42°37' W 070°39'0 0.0
2018-Jun-05 18:28N 42°37' W 070°39'0 0.0
2018-Jun-05 17:55N 42°37' W 070°39'0 0.0
2018-Jun-05 17:22N 42°37' W 070°39'0 0.0
2018-Jun-05 16:55N 42°37' W 070°39'0 0.0
2018-Jun-05 16:25N 42°37' W 070°39'0 0.0
2018-Jun-05 15:58N 42°37' W 070°39'0 0.0
2018-Jun-05 15:25N 42°37' W 070°39'0 0.0
2018-Jun-05 14:58N 42°37' W 070°39'0 0.0
2018-Jun-05 14:25N 42°37' W 070°39'0 0.0
2018-Jun-05 13:58N 42°37' W 070°39'0 0.0
2018-Jun-05 13:19N 42°37' W 070°39'0 0.0
2018-Jun-05 12:49N 42°37' W 070°39'0 0.0
2018-Jun-05 12:25N 42°37' W 070°39'0 0.0
2018-Jun-05 11:55N 42°37' W 070°39'0 0.0
2018-Jun-05 11:19N 42°37' W 070°39'0 0.0
2018-Jun-05 10:55N 42°37' W 070°39'0 0.0
2018-Jun-05 10:28N 42°37' W 070°39'0 0.0
2018-Jun-05 09:55N 42°37' W 070°39'0 0.0
2018-Jun-05 09:25N 42°37' W 070°39'0 0.0
2018-Jun-05 08:55N 42°37' W 070°39'0 0.0
2018-Jun-05 08:25N 42°37' W 070°39'0 0.0
2018-Jun-05 07:55N 42°37' W 070°39'0 0.0
2018-Jun-05 07:25N 42°37' W 070°39'0 0.0
2018-Jun-05 06:58N 42°37' W 070°39'0 0.0
2018-Jun-05 06:28N 42°37' W 070°39'0 0.0
2018-Jun-05 05:55N 42°37' W 070°39'0 0.0
2018-Jun-05 05:25N 42°37' W 070°39'0 0.0
2018-Jun-05 04:55N 42°37' W 070°39'0 0.0
2018-Jun-05 04:19N 42°37' W 070°39'0 0.0
2018-Jun-05 03:58N 42°37' W 070°39'0 0.0
2018-Jun-05 03:25N 42°37' W 070°39'0 0.0
2018-Jun-05 02:58N 42°37' W 070°39'0 0.0
2018-Jun-05 02:28N 42°37' W 070°39'0 0.0
2018-Jun-05 01:55N 42°37' W 070°39'0 0.0
2018-Jun-05 01:25N 42°37' W 070°39'0 0.0
2018-Jun-05 00:55N 42°37' W 070°39'0 0.0
2018-Jun-05 00:25N 42°37' W 070°39'0 0.0
2018-Jun-04 23:55N 42°37' W 070°39'0 0.0
2018-Jun-04 23:25N 42°37' W 070°39'0 0.0
2018-Jun-04 22:58N 42°37' W 070°39'0 0.0
2018-Jun-04 22:25N 42°37' W 070°39'0 0.0
2018-Jun-04 21:55N 42°37' W 070°39'0 0.0
2018-Jun-04 21:28N 42°37' W 070°39'0 0.0
2018-Jun-04 20:55N 42°37' W 070°39'0 0.0
2018-Jun-04 20:22N 42°37' W 070°39'0 0.0
2018-Jun-04 19:55N 42°37' W 070°39'0 0.0
2018-Jun-04 19:28N 42°37' W 070°39'0 0.0
2018-Jun-04 18:49N 42°37' W 070°39'0 0.0
2018-Jun-04 18:25N 42°37' W 070°39'0 0.0
2018-Jun-04 17:55N 42°37' W 070°39'0 0.0
2018-Jun-04 17:28N 42°37' W 070°39'0 0.0
2018-Jun-04 16:58N 42°37' W 070°39'0 0.0
2018-Jun-04 16:28N 42°37' W 070°39'0 0.0
2018-Jun-04 15:55N 42°37' W 070°39'0 0.0
2018-Jun-04 15:28N 42°37' W 070°39'0 0.0
2018-Jun-04 14:58N 42°37' W 070°39'0 0.0
2018-Jun-04 14:25N 42°37' W 070°39'0 0.0
2018-Jun-04 13:55N 42°37' W 070°39'0 0.0
2018-Jun-04 13:25N 42°37' W 070°39'0 0.0
2018-Jun-04 12:55N 42°37' W 070°39'0 0.0
2018-Jun-04 12:25N 42°37' W 070°39'0 0.0
2018-Jun-04 11:58N 42°37' W 070°39'0 0.0
2018-Jun-04 11:28N 42°37' W 070°39'0 0.0
2018-Jun-04 10:58N 42°37' W 070°39'0 0.0
2018-Jun-04 10:28N 42°37' W 070°39'0 0.0
2018-Jun-04 09:58N 42°37' W 070°39'0 0.0
2018-Jun-04 09:25N 42°37' W 070°39'0 0.0
2018-Jun-04 08:49N 42°37' W 070°39'0 0.0
2018-Jun-04 08:28N 42°37' W 070°39'0 0.0
2018-Jun-04 07:55N 42°37' W 070°39'0 0.0
2018-Jun-04 07:28N 42°37' W 070°39'0 0.0
2018-Jun-04 06:58N 42°37' W 070°39'0 0.0
2018-Jun-04 06:25N 42°37' W 070°39'0 0.0
2018-Jun-04 05:55N 42°37' W 070°39'0 0.0
2018-Jun-04 05:25N 42°37' W 070°39'0 0.0
2018-Jun-04 04:55N 42°37' W 070°39'0 0.0
2018-Jun-04 04:25N 42°37' W 070°39'0 0.0
2018-Jun-04 03:55N 42°37' W 070°39'0 0.0
2018-Jun-04 03:28N 42°37' W 070°39'0 0.0
2018-Jun-04 02:55N 42°37' W 070°39'0 0.0
2018-Jun-04 02:28N 42°37' W 070°39'0 0.0
2018-Jun-04 01:55N 42°37' W 070°39'0 0.0
2018-Jun-04 01:25N 42°37' W 070°39'0 0.0
2018-Jun-04 00:58N 42°37' W 070°39'0 0.0
2018-Jun-04 00:25N 42°37' W 070°39'0 0.0
2018-Jun-03 23:58N 42°37' W 070°39'0 0.0
2018-Jun-03 23:25N 42°37' W 070°39'0 0.0
2018-Jun-03 22:58N 42°37' W 070°39'0 0.0
2018-Jun-03 22:28N 42°37' W 070°39'0 0.0
2018-Jun-03 21:58N 42°37' W 070°39'0 0.0
2018-Jun-03 21:25N 42°37' W 070°39'0 0.0
2018-Jun-03 20:55N 42°37' W 070°39'0 0.0
2018-Jun-03 20:25N 42°37' W 070°39'0 0.0
2018-Jun-03 19:55N 42°37' W 070°39'0 0.0
2018-Jun-03 19:25N 42°37' W 070°39'0 0.0
2018-Jun-03 18:55N 42°37' W 070°39'0 0.0
2018-Jun-03 18:28N 42°37' W 070°39'0 0.0
2018-Jun-03 17:58N 42°37' W 070°39'0 0.0
2018-Jun-03 17:22N 42°37' W 070°39'0 0.0
2018-Jun-03 16:55N 42°37' W 070°39'0 0.0
2018-Jun-03 16:25N 42°37' W 070°39'0 0.0
2018-Jun-03 15:58N 42°37' W 070°39'0 0.0
2018-Jun-03 15:19N 42°37' W 070°39'0 0.0
2018-Jun-03 14:55N 42°37' W 070°39'0 0.0
2018-Jun-03 14:25N 42°37' W 070°39'0 0.0
2018-Jun-03 13:55N 42°37' W 070°39'0 0.0
2018-Jun-03 13:25N 42°37' W 070°39'0 0.0
2018-Jun-03 12:55N 42°37' W 070°39'0 0.0
2018-Jun-03 12:13N 42°37' W 070°39'0 0.0
2018-Jun-03 11:55N 42°37' W 070°39'0 0.0
2018-Jun-03 11:25N 42°37' W 070°39'0 0.0
2018-Jun-03 10:55N 42°37' W 070°39'0 0.0
2018-Jun-03 10:19N 42°37' W 070°39'0 0.0
2018-Jun-03 09:49N 42°37' W 070°39'0 0.0
2018-Jun-03 09:28N 42°37' W 070°39'0 0.0
2018-Jun-03 08:55N 42°37' W 070°39'0 0.0
2018-Jun-03 08:25N 42°37' W 070°39'0 0.0
2018-Jun-03 07:58N 42°37' W 070°39'0 0.0
2018-Jun-03 07:25N 42°37' W 070°39'0 0.0
2018-Jun-03 06:58N 42°37' W 070°39'0 0.0
2018-Jun-03 06:25N 42°37' W 070°39'0 0.0
2018-Jun-03 05:55N 42°37' W 070°39'0 0.0
2018-Jun-03 05:28N 42°37' W 070°39'0 0.0
2018-Jun-03 04:58N 42°37' W 070°39'0 0.0
2018-Jun-03 04:25N 42°37' W 070°39'0 0.0
2018-Jun-03 03:58N 42°37' W 070°39'0 0.0
2018-Jun-03 03:25N 42°37' W 070°39'0 0.0
2018-Jun-03 02:58N 42°37' W 070°39'0 0.0
2018-Jun-03 02:28N 42°37' W 070°39'0 0.0
2018-Jun-03 01:55N 42°37' W 070°39'0 0.0
2018-Jun-03 01:25N 42°37' W 070°39'0 0.0
2018-Jun-03 00:58N 42°37' W 070°39'0 0.0
2018-Jun-03 00:25N 42°37' W 070°39'0 0.0
2018-Jun-02 23:46N 42°37' W 070°39'0 0.0
2018-Jun-02 23:31N 42°37' W 070°39'0 0.0
2018-Jun-02 22:58N 42°37' W 070°39'0 0.0
2018-Jun-02 22:10N 42°37' W 070°39'0 0.0
2018-Jun-02 21:52N 42°37' W 070°39'0 0.0
2018-Jun-02 21:28N 42°37' W 070°39'0 0.0
2018-Jun-02 20:55N 42°37' W 070°39'0 0.0
2018-Jun-02 20:22N 42°37' W 070°39'0 0.0
2018-Jun-02 19:55N 42°37' W 070°39'0 0.0
2018-Jun-02 19:25N 42°37' W 070°39'0 0.0
2018-Jun-02 18:55N 42°37' W 070°39'0 0.0
2018-Jun-02 18:22N 42°37' W 070°39'0 0.0
2018-Jun-02 17:58N 42°37' W 070°39'0 0.0
2018-Jun-02 17:28N 42°37' W 070°39'0 0.0
2018-Jun-02 16:55N 42°37' W 070°39'0 0.0
2018-Jun-02 16:28N 42°37' W 070°39'0 0.0
2018-Jun-02 15:58N 42°37' W 070°39'0 0.0
2018-Jun-02 15:25N 42°37' W 070°39'0 0.0
2018-Jun-02 14:58N 42°37' W 070°39'0 0.0
2018-Jun-02 14:28N 42°37' W 070°39'0 0.0
2018-Jun-02 13:58N 42°37' W 070°39'0 0.0
2018-Jun-02 13:28N 42°37' W 070°39'0 0.0
2018-Jun-02 12:55N 42°37' W 070°39'0 0.0
2018-Jun-02 12:25N 42°37' W 070°39'0 0.0
2018-Jun-02 11:58N 42°37' W 070°39'0 0.0
2018-Jun-02 11:28N 42°37' W 070°39'0 0.0
2018-Jun-02 10:58N 42°37' W 070°39'0 0.0
2018-Jun-02 10:19N 42°37' W 070°39'0 0.0
2018-Jun-02 09:58N 42°37' W 070°39'0 0.0
2018-Jun-02 09:28N 42°37' W 070°39'0 0.0
2018-Jun-02 08:52N 42°37' W 070°39'0 0.0
2018-Jun-02 08:25N 42°37' W 070°39'0 0.0
2018-Jun-02 07:58N 42°37' W 070°39'0 0.0
2018-Jun-02 07:28N 42°37' W 070°39'0 0.0
2018-Jun-02 06:55N 42°37' W 070°39'0 0.0
2018-Jun-02 06:25N 42°37' W 070°39'0 0.0
2018-Jun-02 05:58N 42°37' W 070°39'0 0.0
2018-Jun-02 05:19N 42°37' W 070°39'0 0.0
2018-Jun-02 04:55N 42°37' W 070°39'0 0.0
2018-Jun-02 04:25N 42°37' W 070°39'0 0.0
2018-Jun-02 03:55N 42°37' W 070°39'0 0.0
2018-Jun-02 03:25N 42°37' W 070°39'0 0.0
2018-Jun-02 02:55N 42°37' W 070°39'0 0.0
2018-Jun-02 02:28N 42°37' W 070°39'0 0.0
2018-Jun-02 01:55N 42°37' W 070°39'0 0.0
2018-Jun-02 01:28N 42°37' W 070°39'0 0.0
2018-Jun-02 00:55N 42°37' W 070°39'0 0.0
2018-Jun-02 00:25N 42°37' W 070°39'0 0.0
2018-Jun-01 23:58N 42°37' W 070°39'0 0.0
2018-Jun-01 23:22N 42°37' W 070°39'0 0.0
2018-Jun-01 22:58N 42°37' W 070°39'0 0.0
2018-Jun-01 22:19N 42°37' W 070°39'0 0.0
2018-Jun-01 21:58N 42°37' W 070°39'0 0.0
2018-Jun-01 21:28N 42°37' W 070°39'0 0.0
2018-Jun-01 20:55N 42°37' W 070°39'0 0.0
2018-Jun-01 20:25N 42°37' W 070°39'0 0.0
2018-Jun-01 19:55N 42°37' W 070°39'0 0.0
2018-Jun-01 19:22N 42°37' W 070°39'0 0.0
2018-Jun-01 18:49N 42°37' W 070°39'0 0.0
2018-Jun-01 18:25N 42°37' W 070°39'0 0.0
2018-Jun-01 17:49N 42°37' W 070°39'0 0.0
2018-Jun-01 17:28N 42°37' W 070°39'0 0.0
2018-Jun-01 16:58N 42°37' W 070°39'0 0.0
2018-Jun-01 16:25N 42°37' W 070°39'0 0.0
2018-Jun-01 15:58N 42°37' W 070°39'0 0.0
2018-Jun-01 15:25N 42°37' W 070°39'0 0.1
2018-Jun-01 15:00N 42°37' W 070°39'0 0.1
2018-Jun-01 14:27N 42°36' W 070°39'0 0.0
2018-Jun-01 13:57N 42°36' W 070°39'0 0.0
2018-Jun-01 13:27N 42°36' W 070°39'0 0.0
2018-Jun-01 12:54N 42°36' W 070°39'0 0.0
2018-Jun-01 12:30N 42°36' W 070°39'0 0.0
2018-Jun-01 12:00N 42°36' W 070°39'0 0.0
2018-Jun-01 11:30N 42°36' W 070°39'0 0.0
2018-Jun-01 10:57N 42°36' W 070°39'0 0.0
2018-Jun-01 10:21N 42°36' W 070°39'0 0.0
2018-Jun-01 09:57N 42°36' W 070°39'0 0.0
2018-Jun-01 09:27N 42°36' W 070°39'0 0.0
2018-Jun-01 09:00N 42°36' W 070°39'0 0.0
2018-Jun-01 08:27N 42°36' W 070°39'0 0.0
2018-Jun-01 07:57N 42°36' W 070°39'0 0.0
2018-Jun-01 07:27N 42°36' W 070°39'0 0.0
2018-Jun-01 07:00N 42°36' W 070°39'0 0.0
2018-Jun-01 06:30N 42°36' W 070°39'0 0.0
2018-Jun-01 06:00N 42°36' W 070°39'0 0.0
2018-Jun-01 05:24N 42°36' W 070°39'0 0.0
2018-Jun-01 05:00N 42°36' W 070°39'0 0.0
2018-Jun-01 04:27N 42°36' W 070°39'0 0.0
2018-Jun-01 04:00N 42°36' W 070°39'0 0.0
2018-Jun-01 03:24N 42°36' W 070°39'0 0.0
2018-Jun-01 03:00N 42°36' W 070°39'0 0.0
2018-Jun-01 02:27N 42°36' W 070°39'0 0.0
2018-Jun-01 01:45N 42°36' W 070°39'0 0.0
2018-Jun-01 01:21N 42°36' W 070°39'0 0.0
2018-Jun-01 01:00N 42°36' W 070°39'0 0.0
2018-Jun-01 00:27N 42°36' W 070°39'0 0.0
2018-May-31 23:57N 42°36' W 070°39'0 0.0
2018-May-31 23:27N 42°36' W 070°39'0 0.0
2018-May-31 22:57N 42°36' W 070°39'0 0.0
2018-May-31 22:30N 42°36' W 070°39'0 0.0
2018-May-31 21:45N 42°36' W 070°39'0 0.0
2018-May-31 21:27N 42°36' W 070°39'0 0.0
2018-May-31 21:00N 42°36' W 070°39'0 0.0
2018-May-31 20:21N 42°36' W 070°39'0 0.0
2018-May-31 20:00N 42°36' W 070°39'0 0.0
2018-May-31 19:18N 42°36' W 070°39'0 0.0
2018-May-31 19:00N 42°36' W 070°39'0 0.0
2018-May-31 18:30N 42°36' W 070°39'0 0.0
2018-May-31 18:00N 42°36' W 070°39'0 0.0
2018-May-31 17:27N 42°36' W 070°39'0 0.0
2018-May-31 16:57N 42°36' W 070°39'0 0.0
2018-May-31 16:27N 42°36' W 070°39'0 0.0
2018-May-31 15:57N 42°36' W 070°39'0 0.0
2018-May-31 15:30N 42°36' W 070°39'0 0.0
2018-May-31 14:51N 42°36' W 070°39'0 0.0
2018-May-31 14:21N 42°36' W 070°39'0 0.0
2018-May-31 14:00N 42°36' W 070°39'0 0.0
2018-May-31 13:27N 42°36' W 070°39'0 0.0
2018-May-31 13:00N 42°36' W 070°39'0 0.0
2018-May-31 12:30N 42°36' W 070°39'0 0.0
2018-May-31 12:00N 42°36' W 070°39'0 0.0
2018-May-31 11:27N 42°36' W 070°39'0 0.0
2018-May-31 10:57N 42°36' W 070°39'0 0.0
2018-May-31 10:30N 42°36' W 070°39'0 0.0
2018-May-31 09:57N 42°36' W 070°39'0 0.0
2018-May-31 09:27N 42°36' W 070°39'0 0.0
2018-May-31 08:57N 42°36' W 070°39'0 0.0
2018-May-31 08:27N 42°36' W 070°39'0 0.0
2018-May-31 08:00N 42°36' W 070°39'0 0.0
2018-May-31 07:27N 42°36' W 070°39'0 0.0
2018-May-31 07:00N 42°36' W 070°39'0 0.0
2018-May-31 06:27N 42°36' W 070°39'0 0.0
2018-May-31 06:00N 42°36' W 070°39'0 0.0
2018-May-31 05:27N 42°36' W 070°39'0 0.0
2018-May-31 04:57N 42°36' W 070°39'0 0.0
2018-May-31 04:30N 42°36' W 070°39'0 0.0
2018-May-31 03:57N 42°36' W 070°39'0 0.0
2018-May-31 03:30N 42°36' W 070°39'0 0.0
2018-May-31 03:00N 42°36' W 070°39'0 0.0
2018-May-31 02:24N 42°36' W 070°39'0 0.0
2018-May-31 02:00N 42°36' W 070°39'0 0.0
2018-May-31 01:27N 42°36' W 070°39'0 0.0
2018-May-31 01:00N 42°36' W 070°39'0 0.0
2018-May-31 00:30N 42°36' W 070°39'0 0.0
2018-May-30 23:57N 42°36' W 070°39'0 0.0
2018-May-30 23:24N 42°36' W 070°39'0 0.0
2018-May-30 23:00N 42°36' W 070°39'0 0.0
2018-May-30 22:27N 42°36' W 070°39'0 0.0
2018-May-30 21:57N 42°36' W 070°39'0 0.0
2018-May-30 21:27N 42°36' W 070°39'0 0.0
2018-May-30 21:00N 42°36' W 070°39'0 0.0
2018-May-30 20:30N 42°36' W 070°39'0 0.0
2018-May-30 20:00N 42°36' W 070°39'0 0.0
2018-May-30 19:30N 42°36' W 070°39'0 0.0
2018-May-30 18:57N 42°36' W 070°39'0 0.0
2018-May-30 18:21N 42°36' W 070°39'0 0.0
2018-May-30 17:51N 42°36' W 070°39'0 0.0
2018-May-30 17:27N 42°36' W 070°39'0 0.0
2018-May-30 17:00N 42°36' W 070°39'0 0.0
2018-May-30 16:30N 42°36' W 070°39'0 0.0
2018-May-30 16:00N 42°36' W 070°39'0 0.0
2018-May-30 15:30N 42°36' W 070°39'0 0.0
2018-May-30 15:00N 42°36' W 070°39'0 0.0
2018-May-30 14:30N 42°36' W 070°39'0 0.0
2018-May-30 14:00N 42°36' W 070°39'0 0.0
2018-May-30 13:30N 42°36' W 070°39'0 0.0
2018-May-30 12:57N 42°36' W 070°39'0 0.0
2018-May-30 12:21N 42°36' W 070°39'0 0.0
2018-May-30 12:00N 42°36' W 070°39'0 0.0
2018-May-30 11:30N 42°36' W 070°39'0 0.0
2018-May-30 10:45N 42°36' W 070°39'0 0.0
2018-May-30 10:24N 42°36' W 070°39'0 0.0
2018-May-30 10:00N 42°36' W 070°39'0 0.0
2018-May-30 09:30N 42°36' W 070°39'0 0.0
2018-May-30 08:48N 42°36' W 070°39'0 0.0
2018-May-30 08:30N 42°36' W 070°39'0 0.0
2018-May-30 08:00N 42°36' W 070°39'0 0.0
2018-May-30 07:27N 42°36' W 070°39'0 0.0
2018-May-30 07:00N 42°36' W 070°39'0 0.0
2018-May-30 06:30N 42°36' W 070°39'0 0.0
2018-May-30 06:00N 42°36' W 070°39'0 0.0
2018-May-30 05:30N 42°36' W 070°39'0 0.0
2018-May-30 05:00N 42°36' W 070°39'0 0.0
2018-May-30 04:30N 42°36' W 070°39'0 0.0
2018-May-30 03:54N 42°36' W 070°39'0 0.0
2018-May-30 03:27N 42°36' W 070°39'0 0.0
2018-May-30 03:00N 42°36' W 070°39'0 0.0
2018-May-30 02:30N 42°36' W 070°39'0 0.0
2018-May-30 01:54N 42°36' W 070°39'0 0.0
2018-May-30 01:30N 42°36' W 070°39'0 0.0
2018-May-30 00:57N 42°36' W 070°39'0 0.0
2018-May-30 00:27N 42°36' W 070°39'0 0.0
2018-May-29 23:57N 42°36' W 070°39'0 0.0
2018-May-29 23:27N 42°36' W 070°39'0 0.0
2018-May-29 23:00N 42°36' W 070°39'0 0.0
2018-May-29 22:30N 42°36' W 070°39'0 0.0
2018-May-29 22:00N 42°36' W 070°39'0 0.0
2018-May-29 21:27N 42°36' W 070°39'0 0.0
2018-May-29 21:00N 42°36' W 070°39'0 0.0
2018-May-29 20:30N 42°36' W 070°39'0 0.0
2018-May-29 20:00N 42°36' W 070°39'0 0.0
2018-May-29 19:27N 42°36' W 070°39'0 0.0
2018-May-29 19:00N 42°36' W 070°39'0 0.1
2018-May-29 18:27N 42°37' W 070°39'0 0.0
2018-May-29 17:57N 42°37' W 070°39'0 0.0
2018-May-29 17:30N 42°37' W 070°39'0 0.0
2018-May-29 16:51N 42°37' W 070°39'0 0.0
2018-May-29 16:27N 42°37' W 070°39'0 0.0
2018-May-29 15:57N 42°37' W 070°39'0 0.0
2018-May-29 15:24N 42°37' W 070°39'0 0.0
2018-May-29 14:57N 42°37' W 070°39'0 0.0
2018-May-29 14:18N 42°37' W 070°39'0 0.4
2018-May-29 13:58N 42°37' W 070°39'0 0.0
2018-May-29 13:28N 42°37' W 070°39'0 0.0
2018-May-29 12:52N 42°37' W 070°39'0 0.0
2018-May-29 12:28N 42°37' W 070°39'0 0.0
2018-May-29 11:58N 42°37' W 070°39'0 0.0
2018-May-29 11:28N 42°37' W 070°39'0 0.0
2018-May-29 10:58N 42°37' W 070°39'0 0.0
2018-May-29 10:28N 42°37' W 070°39'0 0.0
2018-May-29 09:58N 42°37' W 070°39'0 0.0
2018-May-29 09:28N 42°37' W 070°39'0 0.0
2018-May-29 08:58N 42°37' W 070°39'0 0.0
2018-May-29 08:28N 42°37' W 070°39'0 0.0
2018-May-29 07:58N 42°37' W 070°39'0 0.0
2018-May-29 07:28N 42°37' W 070°39'0 0.0
2018-May-29 06:58N 42°37' W 070°39'0 0.0
2018-May-29 06:28N 42°37' W 070°39'0 0.0
2018-May-29 05:58N 42°37' W 070°39'0 0.0
2018-May-29 05:28N 42°37' W 070°39'0 0.0
2018-May-29 04:58N 42°37' W 070°39'0 0.0
2018-May-29 04:28N 42°37' W 070°39'0 0.0
2018-May-29 03:58N 42°37' W 070°39'0 0.0
2018-May-29 03:28N 42°37' W 070°39'0 0.0
2018-May-29 02:52N 42°37' W 070°39'0 0.0
2018-May-29 02:28N 42°37' W 070°39'0 0.0
2018-May-29 01:46N 42°37' W 070°39'0 0.0
2018-May-29 01:22N 42°37' W 070°39'0 0.0
2018-May-29 00:52N 42°37' W 070°39'0 0.0
2018-May-29 00:28N 42°37' W 070°39'0 0.0
2018-May-28 23:58N 42°37' W 070°39'0 0.0
2018-May-28 23:28N 42°37' W 070°39'0 0.0
2018-May-28 22:55N 42°37' W 070°39'0 0.0
2018-May-28 22:25N 42°37' W 070°39'0 0.0
2018-May-28 21:58N 42°37' W 070°39'0 0.0
2018-May-28 21:28N 42°37' W 070°39'0 0.0
2018-May-28 20:58N 42°37' W 070°39'0 0.0
2018-May-28 20:25N 42°37' W 070°39'0 0.0
2018-May-28 19:55N 42°37' W 070°39'0 0.0
2018-May-28 19:25N 42°37' W 070°39'0 0.0
2018-May-28 18:58N 42°37' W 070°39'0 0.0
2018-May-28 18:28N 42°37' W 070°39'0 0.0
2018-May-28 17:58N 42°37' W 070°39'0 0.3
2018-May-28 17:26N 42°37' W 070°39'1 2.1
2018-May-28 17:00N 42°36' W 070°40'3 5.9
2018-May-28 16:30N 42°33' W 070°42'3 5.8
2018-May-28 16:00N 42°31' W 070°44'3 5.6
2018-May-28 15:30N 42°29' W 070°46'8 5.4
2018-May-28 13:59N 42°23' W 070°54'2 4.4
2018-May-28 13:30N 42°21' W 070°56'2 4.3
2018-May-28 13:00N 42°20' W 070°59'3 5.3
2018-May-28 12:30N 42°21' W 071°02'1 1.7
2018-May-28 12:00N 42°22' W 071°03'0 0.0
2018-May-28 11:27N 42°22' W 071°03'0 0.0
2018-May-28 11:00N 42°22' W 071°03'0 0.0
2018-May-28 10:30N 42°22' W 071°03'0 0.0
2018-May-28 09:58N 42°22' W 071°03'0 0.0
2018-May-28 09:28N 42°22' W 071°03'0 0.0
2018-May-28 08:58N 42°22' W 071°03'0 0.0
2018-May-28 08:30N 42°22' W 071°03'0 0.0
2018-May-28 07:57N 42°22' W 071°03'0 0.0
2018-May-28 07:24N 42°22' W 071°03'0 0.0
2018-May-28 06:57N 42°22' W 071°03'0 0.0
2018-May-28 06:27N 42°22' W 071°03'0 0.0
2018-May-28 06:00N 42°22' W 071°03'0 0.0
2018-May-28 05:30N 42°22' W 071°03'0 0.0
2018-May-28 05:00N 42°22' W 071°03'0 0.0
2018-May-28 04:30N 42°22' W 071°03'0 0.0
2018-May-28 04:00N 42°22' W 071°03'0 0.0
2018-May-28 03:30N 42°22' W 071°03'0 0.0
2018-May-28 02:58N 42°22' W 071°03'0 0.0
2018-May-28 02:28N 42°22' W 071°03'0 0.0
2018-May-28 01:54N 42°22' W 071°03'0 0.0
2018-May-28 01:30N 42°22' W 071°03'0 0.0
2018-May-28 00:58N 42°22' W 071°03'0 0.0
2018-May-28 00:24N 42°22' W 071°03'0 0.0
2018-May-27 23:58N 42°22' W 071°03'0 0.0
2018-May-27 23:27N 42°22' W 071°03'0 0.0
2018-May-27 23:00N 42°22' W 071°03'0 0.0
2018-May-27 22:30N 42°22' W 071°03'0 0.0
2018-May-27 21:58N 42°22' W 071°03'0 0.0
2018-May-27 21:30N 42°22' W 071°03'0 0.0
2018-May-27 21:00N 42°22' W 071°03'0 0.0
2018-May-27 20:28N 42°22' W 071°03'0 0.0
2018-May-27 19:58N 42°22' W 071°03'0 0.0
2018-May-27 19:30N 42°22' W 071°03'0 0.0
2018-May-27 19:00N 42°22' W 071°03'0 0.0
2018-May-27 18:30N 42°22' W 071°03'0 0.0
2018-May-27 18:00N 42°22' W 071°03'  

Dump ship's entire track history